createdAt,value
2023-03-21T00:00:45.180Z,101750.41
2023-03-21T00:03:12.224Z,101742.28
2023-03-21T00:05:43.266Z,101741.84
2023-03-21T00:08:10.183Z,101734.84
2023-03-21T00:10:43.579Z,101737.72
2023-03-21T00:13:14.104Z,101730.06
2023-03-21T00:16:05.274Z,101736.94
2023-03-21T00:18:41.930Z,101734.75
2023-03-21T00:24:00.875Z,101727.25
2023-03-21T00:26:28.041Z,101724.41
2023-03-21T00:28:54.805Z,101725.28
2023-03-21T00:31:21.781Z,101724.94
2023-03-21T00:33:50.456Z,101731.44
2023-03-21T00:36:18.245Z,101733.66
2023-03-21T00:38:45.132Z,101727.63
2023-03-21T00:41:25.892Z,101731.97
2023-03-21T00:44:03.406Z,101731.81
2023-03-21T00:46:43.656Z,101735.31
2023-03-21T00:49:12.446Z,101730.50
2023-03-21T00:51:40.996Z,101716.31
2023-03-21T00:54:07.918Z,101721.97
2023-03-21T00:56:34.761Z,101725.97
2023-03-21T00:59:01.584Z,101716.63
2023-03-21T01:01:32.047Z,101714.97
2023-03-21T01:04:07.683Z,101709.81
2023-03-21T01:06:41.727Z,101705.81
2023-03-21T01:09:13.802Z,101707.78
2023-03-21T01:11:40.953Z,101698.94
2023-03-21T01:14:21.326Z,101693.97
2023-03-21T01:16:49.099Z,101698.00
2023-03-21T01:19:25.376Z,101696.31
2023-03-21T01:21:57.193Z,101696.81
2023-03-21T01:24:24.729Z,101695.00
2023-03-21T01:26:51.536Z,101690.81
2023-03-21T01:29:18.419Z,101685.97
2023-03-21T01:31:45.571Z,101687.31
2023-03-21T01:34:12.529Z,101678.09
2023-03-21T01:36:39.864Z,101680.94
2023-03-21T01:39:11.498Z,101681.81
2023-03-21T01:41:43.358Z,101677.97
2023-03-21T01:44:19.324Z,101667.94
2023-03-21T01:49:47.908Z,101666.94
2023-03-21T01:52:46.731Z,101668.28
2023-03-21T01:55:18.646Z,101662.25
2023-03-21T01:58:05.852Z,101659.72
2023-03-21T02:00:57.068Z,101662.25
2023-03-21T02:03:50.944Z,101656.78
2023-03-21T02:06:52.091Z,101656.63
2023-03-21T02:09:42.333Z,101648.81
2023-03-21T02:12:16.398Z,101650.28
2023-03-21T02:14:48.011Z,101645.28
2023-03-21T02:17:36.860Z,101641.13
2023-03-21T02:20:22.230Z,101628.47
2023-03-21T02:23:10.708Z,101641.28
2023-03-21T02:25:50.043Z,101634.78
2023-03-21T02:28:35.914Z,101619.44
2023-03-21T02:31:12.109Z,101618.78
2023-03-21T02:33:42.444Z,101617.63
2023-03-21T02:36:36.764Z,101614.13
2023-03-21T02:39:24.629Z,101612.63
2023-03-21T02:42:02.053Z,101603.78
2023-03-21T02:44:42.109Z,101609.63
2023-03-21T02:47:24.028Z,101601.44
2023-03-21T02:50:11.673Z,101593.13
2023-03-21T02:52:41.530Z,101596.84
2023-03-21T02:55:16.122Z,101595.16
2023-03-21T02:57:52.810Z,101586.31
2023-03-21T03:00:24.518Z,101588.47
2023-03-21T03:03:02.617Z,101585.97
2023-03-21T03:05:41.314Z,101584.97
2023-03-21T03:08:37.642Z,101578.13
2023-03-21T03:11:23.638Z,101575.28
2023-03-21T03:14:38.428Z,101579.63
2023-03-21T03:17:23.266Z,101567.44
2023-03-21T03:20:15.679Z,101558.47
2023-03-21T03:22:50.117Z,101559.97
2023-03-21T03:25:39.486Z,101563.63
2023-03-21T03:28:09.726Z,101555.13
2023-03-21T03:30:45.051Z,101552.13
2023-03-21T03:33:24.590Z,101550.31
2023-03-21T03:36:04.619Z,101548.66
2023-03-21T03:38:33.898Z,101547.13
2023-03-21T03:41:28.167Z,101547.31
2023-03-21T03:44:01.819Z,101537.34
2023-03-21T03:46:38.575Z,101534.00
2023-03-21T03:49:10.871Z,101547.13
2023-03-21T03:51:54.675Z,101533.16
2023-03-21T03:54:38.385Z,101535.00
2023-03-21T03:57:08.429Z,101534.97
2023-03-21T03:59:40.836Z,101548.44
2023-03-21T04:02:32.279Z,101540.25
2023-03-21T04:05:01.956Z,101544.19
2023-03-21T04:07:29.133Z,101548.66
2023-03-21T04:09:59.839Z,101543.13
2023-03-21T04:12:27.429Z,101545.09
2023-03-21T04:15:16.649Z,101543.91
2023-03-21T04:17:48.352Z,101551.56
2023-03-21T04:20:26.454Z,101545.34
2023-03-21T04:23:01.978Z,101547.72
2023-03-21T04:25:33.769Z,101541.94
2023-03-21T04:28:03.127Z,101541.97
2023-03-21T04:31:02.443Z,101547.59
2023-03-21T04:33:41.274Z,101560.75
2023-03-21T04:36:09.514Z,101556.31
2023-03-21T04:38:37.379Z,101562.06
2023-03-21T04:41:04.869Z,101555.06
2023-03-21T04:43:32.141Z,101552.03
2023-03-21T04:45:59.085Z,101548.00
2023-03-21T04:48:26.255Z,101540.72
2023-03-21T04:50:53.165Z,101548.69
2023-03-21T04:53:20.289Z,101544.06
2023-03-21T04:55:47.748Z,101532.09
2023-03-21T04:58:15.476Z,101541.41
2023-03-21T05:00:45.156Z,101537.97
2023-03-21T05:03:19.774Z,101531.00
2023-03-21T05:05:48.803Z,101536.16
2023-03-21T05:08:16.022Z,101532.19
2023-03-21T05:10:43.691Z,101530.13
2023-03-21T05:13:11.086Z,101528.16
2023-03-21T05:15:38.345Z,101532.22
2023-03-21T05:18:10.382Z,101526.56
2023-03-21T05:20:42.860Z,101531.53
2023-03-21T05:23:11.769Z,101528.75
2023-03-21T05:25:39.834Z,101522.94
2023-03-21T05:28:18.290Z,101527.38
2023-03-21T05:30:46.643Z,101530.19
2023-03-21T05:33:13.831Z,101533.22
2023-03-21T05:35:41.020Z,101527.38
2023-03-21T05:38:10.188Z,101532.56
2023-03-21T05:40:49.315Z,101532.88
2023-03-21T05:43:17.531Z,101533.50
2023-03-21T05:45:45.148Z,101529.50
2023-03-21T05:48:12.158Z,101538.13
2023-03-21T05:50:56.598Z,101537.66
2023-03-21T05:53:23.900Z,101550.16
2023-03-21T05:55:50.703Z,101547.31
2023-03-21T05:58:36.401Z,101548.84
2023-03-21T06:01:03.467Z,101540.91
2023-03-21T06:03:34.195Z,101541.41
2023-03-21T06:06:05.246Z,101541.59
2023-03-21T06:08:40.013Z,101549.25
2023-03-21T06:11:16.825Z,101541.59
2023-03-21T06:13:43.796Z,101544.28
2023-03-21T06:16:10.711Z,101544.44
2023-03-21T06:18:38.288Z,101534.13
2023-03-21T06:21:31.395Z,101540.16
2023-03-21T06:23:58.214Z,101547.13
2023-03-21T06:26:25.391Z,101548.97
2023-03-21T06:28:54.484Z,101554.66
2023-03-21T06:31:25.269Z,101558.13
2023-03-21T06:33:55.174Z,101565.97
2023-03-21T06:36:22.108Z,101570.97
2023-03-21T06:38:49.369Z,101571.97
2023-03-21T06:41:17.092Z,101567.13
2023-03-21T06:43:52.056Z,101575.47
2023-03-21T06:46:19.525Z,101573.50
2023-03-21T06:48:46.931Z,101568.31
2023-03-21T06:51:15.446Z,101567.16
2023-03-21T06:53:54.399Z,101565.00
2023-03-21T06:56:29.401Z,101576.28
2023-03-21T06:58:56.662Z,101579.78
2023-03-21T07:01:43.792Z,101575.91
2023-03-21T07:04:11.090Z,101574.72
2023-03-21T07:06:38.773Z,101568.53
2023-03-21T07:09:06.549Z,101568.13
2023-03-21T07:11:36.219Z,101580.28
2023-03-21T07:14:04.395Z,101572.50
2023-03-21T07:16:31.363Z,101577.34
2023-03-21T07:18:58.192Z,101573.59
2023-03-21T07:21:25.123Z,101588.22
2023-03-21T07:23:53.548Z,101579.44
2023-03-21T07:26:20.786Z,101578.00
2023-03-21T07:28:47.698Z,101570.09
2023-03-21T07:31:16.543Z,101577.84
2023-03-21T07:33:43.530Z,101584.88
2023-03-21T07:36:13.277Z,101584.19
2023-03-21T07:38:41.249Z,101591.66
2023-03-21T07:41:08.588Z,101586.41
2023-03-21T07:43:37.175Z,101588.16
2023-03-21T07:46:09.748Z,101584.75
2023-03-21T07:48:37.315Z,101580.06
2023-03-21T07:51:06.465Z,101577.94
2023-03-21T07:53:35.297Z,101579.03
2023-03-21T07:56:02.132Z,101586.34
2023-03-21T07:58:28.879Z,101591.13
2023-03-21T08:00:56.665Z,101592.19
2023-03-21T08:03:24.206Z,101583.84
2023-03-21T08:05:51.197Z,101579.16
2023-03-21T08:08:18.169Z,101585.06
2023-03-21T08:10:45.253Z,101572.56
2023-03-21T08:13:12.821Z,101576.06
2023-03-21T08:15:42.174Z,101577.91
2023-03-21T08:18:10.056Z,101578.53
2023-03-21T08:20:37.067Z,101580.56
2023-03-21T08:23:04.323Z,101586.31
2023-03-21T08:25:31.516Z,101588.44
2023-03-21T08:27:58.333Z,101589.56
2023-03-21T08:30:28.219Z,101592.50
2023-03-21T08:33:01.959Z,101597.78
2023-03-21T08:35:29.799Z,101600.53
2023-03-21T08:37:56.843Z,101598.78
2023-03-21T08:40:23.602Z,101594.44
2023-03-21T08:42:50.382Z,101598.66
2023-03-21T08:45:18.362Z,101601.72
2023-03-21T08:47:45.824Z,101608.16
2023-03-21T08:50:16.059Z,101609.25
2023-03-21T08:52:43.367Z,101610.81
2023-03-21T08:55:11.398Z,101608.63
2023-03-21T08:57:38.267Z,101607.47
2023-03-21T09:00:14.906Z,101608.00
2023-03-21T09:02:42.736Z,101611.63
2023-03-21T09:05:12.061Z,101610.69
2023-03-21T09:07:41.019Z,101611.69
2023-03-21T09:10:26.954Z,101602.84
2023-03-21T09:12:55.536Z,101607.38
2023-03-21T09:15:25.033Z,101600.78
2023-03-21T09:17:57.134Z,101603.63
2023-03-21T09:20:31.203Z,101600.31
2023-03-21T09:22:59.229Z,101605.97
2023-03-21T09:25:29.534Z,101595.16
2023-03-21T09:27:56.572Z,101604.34
2023-03-21T09:30:26.248Z,101601.94
2023-03-21T09:32:56.898Z,101594.53
2023-03-21T09:35:24.913Z,101584.88
2023-03-21T09:37:51.907Z,101577.72
2023-03-21T09:40:29.193Z,101574.28
2023-03-21T09:42:59.731Z,101577.44
2023-03-21T09:45:49.396Z,101579.75
2023-03-21T09:48:31.788Z,101581.63
2023-03-21T09:50:58.609Z,101586.19
2023-03-21T09:53:35.518Z,101577.69
2023-03-21T09:56:02.984Z,101578.72
2023-03-21T09:58:36.701Z,101579.97
2023-03-21T10:01:11.232Z,101572.56
2023-03-21T10:03:38.269Z,101580.56
2023-03-21T10:06:13.196Z,101578.94
2023-03-21T10:08:43.091Z,101583.72
2023-03-21T10:11:25.590Z,101589.09
2023-03-21T10:13:59.569Z,101579.41
2023-03-21T10:16:41.023Z,101586.72
2023-03-21T10:19:12.990Z,101595.19
2023-03-21T10:21:59.746Z,101593.53
2023-03-21T10:24:29.258Z,101597.06
2023-03-21T10:26:59.906Z,101592.63
2023-03-21T10:29:32.112Z,101605.75
2023-03-21T10:32:00.669Z,101611.53
2023-03-21T10:34:36.914Z,101599.16
2023-03-21T10:37:05.535Z,101603.06
2023-03-21T10:39:44.066Z,101603.81
2023-03-21T10:42:24.022Z,101605.72
2023-03-21T10:44:54.186Z,101603.28
2023-03-21T10:47:24.821Z,101594.34
2023-03-21T10:50:09.322Z,101588.56
2023-03-21T10:52:42.047Z,101584.47
2023-03-21T10:55:24.545Z,101581.56
2023-03-21T10:58:08.771Z,101571.81
2023-03-21T11:00:41.404Z,101571.22
2023-03-21T11:03:24.589Z,101574.94
2023-03-21T11:05:58.564Z,101577.22
2023-03-21T11:08:27.385Z,101572.25
2023-03-21T11:10:54.110Z,101573.50
2023-03-21T11:13:27.123Z,101570.59
2023-03-21T11:16:03.947Z,101572.28
2023-03-21T11:18:33.383Z,101570.19
2023-03-21T11:21:06.139Z,101565.81
2023-03-21T11:23:35.875Z,101563.16
2023-03-21T11:26:09.114Z,101568.53
2023-03-21T11:28:39.677Z,101567.06
2023-03-21T11:31:09.344Z,101557.38
2023-03-21T11:33:40.603Z,101569.75
2023-03-21T11:36:24.560Z,101577.00
2023-03-21T11:38:56.679Z,101573.06
2023-03-21T11:41:28.974Z,101569.75
2023-03-21T11:43:58.230Z,101563.34
2023-03-21T11:46:27.735Z,101561.91
2023-03-21T11:48:56.324Z,101560.44
2023-03-21T11:51:42.591Z,101565.81
2023-03-21T11:54:28.298Z,101564.59
2023-03-21T11:57:22.744Z,101568.31
2023-03-21T12:00:01.898Z,101562.69
2023-03-21T12:03:07.685Z,101568.50
2023-03-21T12:05:39.516Z,101572.44
2023-03-21T12:08:12.940Z,101560.63
2023-03-21T12:10:46.013Z,101554.78
2023-03-21T12:13:27.340Z,101557.72
2023-03-21T12:16:31.711Z,101547.59
2023-03-21T12:19:11.984Z,101551.75
2023-03-21T12:21:57.206Z,101551.91
2023-03-21T12:24:31.392Z,101557.25
2023-03-21T12:27:10.561Z,101554.78
2023-03-21T12:29:59.035Z,101542.97
2023-03-21T12:33:02.756Z,101550.00
2023-03-21T12:35:55.050Z,101541.97
2023-03-21T12:38:21.999Z,101540.28
2023-03-21T12:41:06.713Z,101549.59
2023-03-21T12:43:45.649Z,101546.06
2023-03-21T12:46:34.243Z,101540.22
2023-03-21T12:49:16.772Z,101536.97
2023-03-21T12:52:01.865Z,101542.44
2023-03-21T12:54:40.398Z,101531.63
2023-03-21T12:57:33.638Z,101542.78
2023-03-21T13:00:27.430Z,101525.78
2023-03-21T13:03:08.856Z,101528.44
2023-03-21T13:05:41.988Z,101518.53
2023-03-21T13:08:49.334Z,101503.88
2023-03-21T13:11:21.903Z,101496.41
2023-03-21T13:14:04.659Z,101505.13
2023-03-21T13:16:38.058Z,101500.34
2023-03-21T13:19:27.198Z,101489.97
2023-03-21T13:22:00.611Z,101496.63
2023-03-21T13:24:52.803Z,101491.47
2023-03-21T13:27:31.766Z,101485.50
2023-03-21T13:30:18.515Z,101482.63
2023-03-21T13:32:48.933Z,101479.53
2023-03-21T13:35:16.418Z,101477.25
2023-03-21T13:37:59.429Z,101484.91
2023-03-21T13:40:42.482Z,101480.56
2023-03-21T13:43:34.240Z,101492.34
2023-03-21T13:46:27.377Z,101487.53
2023-03-21T13:49:01.374Z,101484.22
2023-03-21T13:51:28.176Z,101485.25
2023-03-21T13:54:26.152Z,101472.59
2023-03-21T13:56:56.820Z,101463.09
2023-03-21T13:59:44.686Z,101463.25
2023-03-21T14:02:33.396Z,101460.41
2023-03-21T14:05:07.332Z,101462.75
2023-03-21T14:07:47.471Z,101461.72
2023-03-21T14:10:37.413Z,101451.81
2023-03-21T14:13:16.303Z,101457.19
2023-03-21T14:15:56.475Z,101461.13
2023-03-21T14:18:35.396Z,101465.66
2023-03-21T14:21:29.520Z,101454.88
2023-03-21T14:24:01.859Z,101457.38
2023-03-21T14:26:37.994Z,101462.53
2023-03-21T14:29:09.657Z,101455.06
2023-03-21T14:31:45.663Z,101462.31
2023-03-21T14:34:15.419Z,101461.72
2023-03-21T14:36:51.646Z,101466.88
2023-03-21T14:39:26.193Z,101462.16
2023-03-21T14:41:56.078Z,101451.56
2023-03-21T14:44:52.807Z,101449.72
2023-03-21T14:47:28.105Z,101443.75
2023-03-21T14:49:57.113Z,101447.25
2023-03-21T14:52:27.674Z,101440.22
2023-03-21T14:55:04.067Z,101441.44
2023-03-21T14:57:33.282Z,101441.88
2023-03-21T15:00:07.784Z,101440.22
2023-03-21T15:02:40.153Z,101438.75
2023-03-21T15:05:14.602Z,101442.91
2023-03-21T15:07:41.631Z,101445.81
2023-03-21T15:10:17.366Z,101447.63
2023-03-21T15:12:51.432Z,101443.75
2023-03-21T15:15:18.927Z,101428.63
2023-03-21T15:17:46.524Z,101425.94
2023-03-21T15:20:17.074Z,101429.88
2023-03-21T15:22:54.342Z,101429.44
2023-03-21T15:25:28.228Z,101418.69
2023-03-21T15:27:56.146Z,101419.53
2023-03-21T15:30:29.245Z,101409.16
2023-03-21T15:32:57.568Z,101411.03
2023-03-21T15:35:33.721Z,101408.72
2023-03-21T15:38:00.576Z,101397.97
2023-03-21T15:40:32.425Z,101400.84
2023-03-21T15:43:25.673Z,101414.28
2023-03-21T15:46:07.192Z,101412.81
2023-03-21T15:48:34.872Z,101405.16
2023-03-21T15:51:07.483Z,101407.03
2023-03-21T15:53:36.613Z,101404.78
2023-03-21T15:56:06.573Z,101407.69
2023-03-21T15:58:38.788Z,101407.91
2023-03-21T16:01:10.831Z,101398.97
2023-03-21T16:03:42.054Z,101390.53
2023-03-21T16:06:20.774Z,101406.44
2023-03-21T16:08:50.197Z,101405.00
2023-03-21T16:11:23.158Z,101407.06
2023-03-21T16:13:51.700Z,101403.94
2023-03-21T16:16:26.051Z,101406.88
2023-03-21T16:18:54.764Z,101407.13
2023-03-21T16:21:24.313Z,101405.66
2023-03-21T16:23:51.191Z,101410.22
2023-03-21T16:26:23.842Z,101426.78
2023-03-21T16:28:51.242Z,101420.94
2023-03-21T16:31:25.406Z,101421.81
2023-03-21T16:33:52.422Z,101422.59
2023-03-21T16:36:23.046Z,101422.41
2023-03-21T16:38:52.710Z,101414.13
2023-03-21T16:41:20.501Z,101412.25
2023-03-21T16:43:47.668Z,101413.50
2023-03-21T16:46:23.700Z,101414.94
2023-03-21T16:48:52.992Z,101411.44
2023-03-21T16:53:49.579Z,101423.66
2023-03-21T16:56:27.816Z,101426.72
2023-03-21T16:58:56.068Z,101424.88
2023-03-21T17:01:30.103Z,101435.25
2023-03-21T17:04:00.458Z,101426.53
2023-03-21T17:06:30.047Z,101420.72
2023-03-21T17:08:58.572Z,101415.31
2023-03-21T17:11:27.331Z,101423.59
2023-03-21T17:13:55.244Z,101406.59
2023-03-21T17:16:26.701Z,101413.66
2023-03-21T17:18:53.871Z,101413.25
2023-03-21T17:21:26.660Z,101408.13
2023-03-21T17:23:53.935Z,101411.63
2023-03-21T17:26:24.559Z,101411.84
2023-03-21T17:28:53.648Z,101415.19
2023-03-21T17:31:23.785Z,101414.97
2023-03-21T17:33:51.002Z,101414.75
2023-03-21T17:36:19.033Z,101414.38
2023-03-21T17:38:46.193Z,101418.50
2023-03-21T17:41:14.766Z,101427.56
2023-03-21T17:43:41.596Z,101413.94
2023-03-21T17:46:16.392Z,101425.09
2023-03-21T17:48:44.634Z,101419.91
2023-03-21T17:51:14.814Z,101418.44
2023-03-21T17:53:42.940Z,101416.56
2023-03-21T17:56:14.783Z,101416.13
2023-03-21T17:58:41.667Z,101416.34
2023-03-21T18:01:08.521Z,101425.59
2023-03-21T18:03:35.389Z,101419.19
2023-03-21T18:06:02.240Z,101415.25
2023-03-21T18:08:29.680Z,101425.50
2023-03-21T18:10:56.613Z,101415.38
2023-03-21T18:13:23.849Z,101421.09
2023-03-21T18:15:50.867Z,101426.66
2023-03-21T18:18:17.922Z,101423.13
2023-03-21T18:20:52.257Z,101424.56
2023-03-21T18:23:20.971Z,101422.88
2023-03-21T18:25:48.602Z,101411.50
2023-03-21T18:28:19.400Z,101420.16
2023-03-21T18:33:37.742Z,101411.25
2023-03-21T18:36:07.490Z,101416.41
2023-03-21T18:38:35.888Z,101421.53
2023-03-21T18:41:03.366Z,101425.88
2023-03-21T18:46:17.650Z,101433.47
2023-03-21T18:48:44.627Z,101429.97
2023-03-21T18:51:11.575Z,101431.19
2023-03-21T18:53:38.735Z,101426.84
2023-03-21T18:56:09.931Z,101427.25
2023-03-21T18:58:37.349Z,101434.66
2023-03-21T19:01:05.128Z,101432.56
2023-03-21T19:03:36.919Z,101434.22
2023-03-21T19:06:05.450Z,101444.09
2023-03-21T19:08:34.881Z,101446.06
2023-03-21T19:11:05.948Z,101448.56
2023-03-21T19:13:34.199Z,101453.28
2023-03-21T19:16:02.590Z,101456.19
2023-03-21T19:21:19.921Z,101462.75
2023-03-21T19:26:33.830Z,101467.66
2023-03-21T19:29:01.265Z,101462.50
2023-03-21T19:31:28.254Z,101463.50
2023-03-21T19:33:55.741Z,101465.56
2023-03-21T19:36:23.544Z,101468.06
2023-03-21T19:38:51.328Z,101472.41
2023-03-21T19:41:25.478Z,101476.50
2023-03-21T19:43:55.027Z,101483.50
2023-03-21T19:46:25.472Z,101478.16
2023-03-21T19:48:56.966Z,101475.66
2023-03-21T19:51:29.731Z,101477.31
2023-03-21T19:54:03.306Z,101479.53
2023-03-21T19:56:31.544Z,101486.72
2023-03-21T19:58:59.769Z,101488.78
2023-03-21T20:01:27.681Z,101486.91
2023-03-21T20:03:54.881Z,101486.91
2023-03-21T20:06:25.340Z,101495.16
2023-03-21T20:11:40.416Z,101499.25
2023-03-21T20:14:07.373Z,101495.53
2023-03-21T20:16:36.451Z,101501.28
2023-03-21T20:19:06.031Z,101503.31
2023-03-21T20:21:42.277Z,101497.97
2023-03-21T20:24:14.724Z,101500.03
2023-03-21T20:26:41.643Z,101500.38
2023-03-21T20:29:56.345Z,101497.50
2023-03-21T20:31:55.684Z,101492.34
2023-03-21T20:34:22.997Z,101492.72
2023-03-21T20:36:50.426Z,101493.56
2023-03-21T20:39:17.855Z,101494.78
2023-03-21T20:41:44.607Z,101495.09
2023-03-21T20:44:42.100Z,101487.88
2023-03-21T20:47:00.128Z,101500.63
2023-03-21T20:49:28.199Z,101513.56
2023-03-21T20:54:42.319Z,101520.22
2023-03-21T20:57:09.320Z,101521.81
2023-03-21T20:59:36.231Z,101532.53
2023-03-21T21:02:03.786Z,101526.13
2023-03-21T21:04:55.738Z,101528.19
2023-03-21T21:07:21.083Z,101525.22
2023-03-21T21:09:48.710Z,101524.69
2023-03-21T21:12:19.536Z,101525.31
2023-03-21T21:14:47.913Z,101525.13
2023-03-21T21:17:31.200Z,101525.78
2023-03-21T21:20:17.390Z,101518.09
2023-03-21T21:22:58.446Z,101523.09
2023-03-21T21:25:26.179Z,101527.41
2023-03-21T21:27:53.879Z,101523.09
2023-03-21T21:30:26.215Z,101522.44
2023-03-21T21:32:54.051Z,101508.22
2023-03-21T21:35:22.408Z,101501.66
2023-03-21T21:37:51.089Z,101507.84
2023-03-21T21:40:20.622Z,101508.03
2023-03-21T21:42:47.542Z,101509.69
2023-03-21T21:45:16.843Z,101503.47
2023-03-21T21:47:44.844Z,101504.53
2023-03-21T21:50:12.625Z,101502.41
2023-03-21T21:52:39.460Z,101509.44
2023-03-21T21:55:06.740Z,101505.66
2023-03-21T21:57:34.709Z,101512.22
2023-03-21T22:00:06.273Z,101515.47
2023-03-21T22:02:39.112Z,101513.09
2023-03-21T22:05:07.907Z,101506.09
2023-03-21T22:07:35.084Z,101507.94
2023-03-21T22:10:01.993Z,101502.78
2023-03-21T22:12:29.251Z,101494.75
2023-03-21T22:14:56.323Z,101497.59
2023-03-21T22:17:23.252Z,101488.69
2023-03-21T22:20:04.719Z,101494.38
2023-03-21T22:22:36.719Z,101493.81
2023-03-21T22:25:09.136Z,101502.91
2023-03-21T22:27:36.819Z,101506.22
2023-03-21T22:30:07.529Z,101500.97
2023-03-21T22:32:36.133Z,101499.13
2023-03-21T22:35:03.326Z,101492.28
2023-03-21T22:37:34.812Z,101480.38
2023-03-21T22:40:02.479Z,101475.75
2023-03-21T22:42:29.315Z,101481.00
2023-03-21T22:44:56.262Z,101485.03
2023-03-21T22:47:23.200Z,101489.13
2023-03-21T22:49:50.508Z,101489.88
2023-03-21T22:52:17.536Z,101489.34
2023-03-21T22:54:46.021Z,101494.63
2023-03-21T22:57:13.793Z,101496.91
2023-03-21T22:59:40.812Z,101502.72
2023-03-21T23:02:09.647Z,101494.88
2023-03-21T23:04:37.217Z,101500.03
2023-03-21T23:07:04.296Z,101504.19
2023-03-21T23:09:31.381Z,101496.34
2023-03-21T23:11:58.385Z,101498.03
2023-03-21T23:14:25.729Z,101490.47
2023-03-21T23:17:00.307Z,101498.47
2023-03-21T23:19:28.995Z,101500.03
2023-03-21T23:21:56.856Z,101497.38
2023-03-21T23:24:24.808Z,101491.84
2023-03-21T23:26:51.757Z,101487.31
2023-03-21T23:29:18.657Z,101486.94
2023-03-21T23:31:45.877Z,101487.13
2023-03-21T23:34:13.945Z,101478.91
2023-03-21T23:36:40.964Z,101477.47
2023-03-21T23:39:08.863Z,101470.81
2023-03-21T23:41:35.899Z,101474.13
2023-03-21T23:44:03.143Z,101471.63
2023-03-21T23:46:30.964Z,101469.97
2023-03-21T23:48:57.976Z,101466.28
2023-03-21T23:51:24.838Z,101462.94
2023-03-21T23:53:53.540Z,101464.81
2023-03-21T23:56:23.214Z,101463.97
2023-03-21T23:58:50.238Z,101464.63
